createdAt,value
2022-08-17T00:03:24.173Z,0
2022-08-17T00:08:25.115Z,0
2022-08-17T00:13:28.006Z,0
2022-08-17T00:33:34.938Z,0
2022-08-17T00:38:32.870Z,0
2022-08-17T00:43:26.939Z,0
2022-08-17T00:48:29.777Z,0
2022-08-17T00:53:25.074Z,0
2022-08-17T00:58:28.749Z,0
2022-08-17T01:03:25.080Z,0
2022-08-17T01:08:25.067Z,0
2022-08-17T01:13:25.134Z,0
2022-08-17T01:18:27.853Z,0
2022-08-17T01:23:25.628Z,0
2022-08-17T01:28:33.302Z,0
2022-08-17T01:33:25.041Z,0
2022-08-17T01:38:31.030Z,0
2022-08-17T01:43:25.099Z,0
2022-08-17T01:53:25.110Z,0
2022-08-17T02:03:29.052Z,0
2022-08-17T02:08:37.402Z,0
2022-08-17T02:13:25.097Z,0
2022-08-17T02:18:25.089Z,0
2022-08-17T02:23:25.245Z,0
2022-08-17T02:28:25.229Z,0
2022-08-17T02:33:42.301Z,0
2022-08-17T02:38:25.165Z,0
2022-08-17T02:43:25.102Z,0
2022-08-17T02:48:30.909Z,0
2022-08-17T02:53:26.113Z,0
2022-08-17T02:58:28.212Z,0
2022-08-17T03:03:25.177Z,0
2022-08-17T03:08:25.299Z,0
2022-08-17T03:13:25.196Z,0
2022-08-17T03:18:29.838Z,0
2022-08-17T03:23:27.250Z,0
2022-08-17T03:33:25.112Z,0
2022-08-17T03:38:25.123Z,0
2022-08-17T03:43:26.791Z,0
2022-08-17T03:48:26.451Z,0
2022-08-17T03:53:25.152Z,0
2022-08-17T04:03:25.173Z,0
2022-08-17T04:08:25.195Z,0
2022-08-17T04:13:27.577Z,0
2022-08-17T04:18:28.597Z,0
2022-08-17T04:23:28.559Z,0
2022-08-17T04:28:28.528Z,0
2022-08-17T04:33:28.557Z,266
2022-08-17T04:43:29.540Z,267
2022-08-17T04:53:31.680Z,270
2022-08-17T04:58:28.594Z,269
2022-08-17T05:03:28.603Z,269
2022-08-17T05:08:28.549Z,272
2022-08-17T05:13:28.628Z,273
2022-08-17T05:18:28.891Z,277
2022-08-17T05:23:34.980Z,279
2022-08-17T05:28:31.574Z,281
2022-08-17T05:33:28.549Z,288
2022-08-17T05:38:28.586Z,292
2022-08-17T05:43:28.618Z,294
2022-08-17T05:48:35.763Z,297
2022-08-17T05:53:28.553Z,294
2022-08-17T05:58:28.576Z,302
2022-08-17T06:03:28.615Z,298
2022-08-17T06:08:28.551Z,290
2022-08-17T06:13:30.101Z,282
2022-08-17T06:18:28.562Z,283
2022-08-17T06:23:28.671Z,281
2022-08-17T06:28:28.583Z,284
2022-08-17T06:33:28.654Z,288
2022-08-17T06:38:37.321Z,288
2022-08-17T06:43:28.888Z,293
2022-08-17T06:48:28.589Z,293
2022-08-17T06:53:28.611Z,294
2022-08-17T06:58:33.491Z,293
2022-08-17T07:03:28.604Z,295
2022-08-17T07:08:33.983Z,300
2022-08-17T07:13:28.638Z,302
2022-08-17T07:18:29.660Z,299
2022-08-17T07:23:28.680Z,300
2022-08-17T07:28:28.628Z,306
2022-08-17T07:33:28.654Z,314
2022-08-17T07:38:28.693Z,316
2022-08-17T07:43:29.731Z,317
2022-08-17T07:48:28.667Z,312
2022-08-17T07:53:28.812Z,317
2022-08-17T07:58:28.630Z,320
2022-08-17T08:03:29.704Z,323
2022-08-17T08:08:28.688Z,328
2022-08-17T08:13:28.632Z,329
2022-08-17T08:18:38.815Z,336
2022-08-17T08:23:28.710Z,341
2022-08-17T08:28:29.711Z,349
2022-08-17T08:33:28.639Z,356
2022-08-17T08:38:28.593Z,363
2022-08-17T08:43:28.657Z,373
2022-08-17T08:48:57.254Z,385
2022-08-17T08:53:28.638Z,412
2022-08-17T08:58:41.521Z,424
2022-08-17T09:03:49.685Z,432
2022-08-17T09:08:28.659Z,475
2022-08-17T09:13:28.621Z,1135
2022-08-17T09:18:59.472Z,1114
2022-08-17T09:23:33.093Z,1259
2022-08-17T09:28:28.823Z,687
2022-08-17T09:33:28.653Z,1221
2022-08-17T09:38:33.650Z,1416
2022-08-17T09:43:28.709Z,1489
2022-08-17T09:48:28.904Z,1475
2022-08-17T09:53:32.211Z,1599
2022-08-17T09:58:29.736Z,440
2022-08-17T10:03:29.145Z,1635
2022-08-17T10:08:32.965Z,1790
2022-08-17T10:13:32.035Z,1835
2022-08-17T10:18:34.200Z,1624
2022-08-17T10:23:30.721Z,1652
2022-08-17T10:28:31.729Z,1682
2022-08-17T10:33:30.660Z,1479
2022-08-17T10:38:30.769Z,1791
2022-08-17T10:43:31.716Z,1606
2022-08-17T10:48:30.822Z,1640
2022-08-17T10:53:30.765Z,1802
2022-08-17T10:58:35.712Z,1697
2022-08-17T11:03:30.714Z,1622
2022-08-17T11:08:32.858Z,1454
2022-08-17T11:13:31.323Z,1151
2022-08-17T11:18:30.805Z,639
2022-08-17T11:23:31.226Z,486
2022-08-17T11:28:30.724Z,442
2022-08-17T11:33:33.763Z,489
2022-08-17T11:38:30.784Z,445
2022-08-17T11:43:31.291Z,415
2022-08-17T11:48:32.060Z,421
2022-08-17T11:53:30.784Z,398
2022-08-17T12:03:33.803Z,382
2022-08-17T12:08:30.784Z,369
2022-08-17T12:13:34.621Z,387
2022-08-17T12:18:31.276Z,380
2022-08-17T12:23:30.762Z,405
2022-08-17T12:28:30.753Z,380
2022-08-17T12:33:30.795Z,396
2022-08-17T12:38:33.863Z,379
2022-08-17T12:43:30.877Z,367
2022-08-17T12:53:30.809Z,348
2022-08-17T12:58:35.646Z,335
2022-08-17T13:03:36.542Z,328
2022-08-17T13:08:30.785Z,340
2022-08-17T13:13:30.783Z,353
2022-08-17T13:18:30.821Z,362
2022-08-17T13:23:34.607Z,348
2022-08-17T13:28:35.555Z,327
2022-08-17T13:33:43.549Z,313
2022-08-17T13:38:34.659Z,302
2022-08-17T13:43:31.234Z,327
2022-08-17T13:48:30.807Z,318
2022-08-17T13:53:32.931Z,333
2022-08-17T13:58:32.701Z,357
2022-08-17T14:03:30.806Z,380
2022-08-17T14:13:30.791Z,341
2022-08-17T14:18:35.565Z,336
2022-08-17T14:23:30.864Z,311
2022-08-17T14:28:33.867Z,303
2022-08-17T14:33:30.857Z,303
2022-08-17T14:53:34.803Z,301
2022-08-17T14:58:34.963Z,317
2022-08-17T15:03:34.838Z,321
2022-08-17T15:13:34.866Z,298
2022-08-17T15:18:34.849Z,315
2022-08-17T15:23:35.070Z,314
2022-08-17T15:28:34.870Z,308
2022-08-17T15:33:34.874Z,303
2022-08-17T15:38:34.833Z,298
2022-08-17T15:43:34.843Z,290
2022-08-17T15:48:34.856Z,290
2022-08-17T15:53:34.766Z,291
2022-08-17T16:18:38.920Z,299
2022-08-17T16:23:48.533Z,294
2022-08-17T16:28:38.846Z,284
2022-08-17T16:33:38.916Z,279
2022-08-17T16:38:38.862Z,281
2022-08-17T16:43:39.051Z,278
2022-08-17T16:48:38.834Z,277
2022-08-17T16:53:38.959Z,274
2022-08-17T16:58:41.871Z,274
2022-08-17T17:03:38.888Z,273
2022-08-17T17:08:44.335Z,277
2022-08-17T17:13:38.921Z,276
2022-08-17T17:18:40.126Z,275
2022-08-17T17:23:38.886Z,274
2022-08-17T17:28:38.836Z,272
2022-08-17T17:33:38.857Z,271
2022-08-17T17:38:38.880Z,271
2022-08-17T17:43:41.883Z,270
2022-08-17T17:48:39.130Z,267
2022-08-17T17:53:43.467Z,266
2022-08-17T17:58:38.884Z,0
2022-08-17T18:03:38.899Z,0
2022-08-17T18:08:38.925Z,0
2022-08-17T18:13:38.877Z,0
2022-08-17T18:18:38.911Z,0
2022-08-17T18:23:39.277Z,0
2022-08-17T18:28:38.897Z,0
2022-08-17T18:33:38.886Z,0
2022-08-17T18:38:38.911Z,0
2022-08-17T18:43:43.916Z,0
2022-08-17T18:48:38.939Z,0
2022-08-17T18:53:38.886Z,0
2022-08-17T18:58:38.900Z,0
2022-08-17T19:03:38.928Z,0
2022-08-17T19:08:39.402Z,0
2022-08-17T19:13:38.926Z,0
2022-08-17T19:18:38.901Z,0
2022-08-17T19:33:39.026Z,0
2022-08-17T19:38:38.948Z,0
2022-08-17T19:43:38.903Z,0
2022-08-17T19:48:38.947Z,0
2022-08-17T19:54:02.033Z,0
2022-08-17T19:58:41.913Z,0
2022-08-17T20:03:40.152Z,0
2022-08-17T20:08:38.904Z,0
2022-08-17T20:13:38.954Z,0
2022-08-17T20:18:43.936Z,0
2022-08-17T20:23:39.009Z,0
2022-08-17T20:28:38.933Z,0
2022-08-17T20:33:39.014Z,0
2022-08-17T20:38:38.983Z,0
2022-08-17T20:43:38.912Z,0
2022-08-17T20:48:40.903Z,0
2022-08-17T20:53:39.037Z,0
2022-08-17T20:58:38.966Z,0
2022-08-17T21:03:50.795Z,0
2022-08-17T21:08:45.651Z,0
2022-08-17T21:13:38.970Z,0
2022-08-17T21:18:39.978Z,0
2022-08-17T21:23:39.014Z,0
2022-08-17T21:29:00.140Z,0
2022-08-17T21:33:39.138Z,0
2022-08-17T21:38:38.984Z,0
2022-08-17T21:43:38.962Z,0
2022-08-17T21:48:38.944Z,0
2022-08-17T21:53:38.986Z,0
2022-08-17T21:58:38.966Z,0
2022-08-17T22:03:39.563Z,0
2022-08-17T22:08:38.976Z,0
2022-08-17T22:13:38.942Z,0
2022-08-17T22:18:38.986Z,0
2022-08-17T22:23:38.987Z,0
2022-08-17T22:28:39.987Z,0
2022-08-17T22:33:38.998Z,0
2022-08-17T22:38:42.041Z,0
2022-08-17T22:43:43.112Z,0
2022-08-17T22:48:39.487Z,0
2022-08-17T22:53:38.969Z,0
2022-08-17T22:58:40.625Z,0
2022-08-17T23:03:39.020Z,0
2022-08-17T23:08:39.007Z,0
2022-08-17T23:13:39.060Z,0
2022-08-17T23:18:39.032Z,0
2022-08-17T23:23:39.507Z,0
2022-08-17T23:28:39.030Z,0
2022-08-17T23:33:39.030Z,0
2022-08-17T23:38:39.055Z,0
2022-08-17T23:43:39.584Z,0
2022-08-17T23:48:38.999Z,0
2022-08-17T23:53:38.996Z,0
2022-08-17T23:58:39.243Z,0
